sensor_id;sensor_type;location;lat;lon;timestamp;P1;durP1;ratioP1;P2;durP2;ratioP2
25331;SDS011;13284;52.748;13.452;2022-11-15T00:01:09;39.00;;;21.60;;
25331;SDS011;13284;52.748;13.452;2022-11-15T00:03:38;34.30;;;19.50;;
25331;SDS011;13284;52.748;13.452;2022-11-15T00:06:04;32.30;;;20.30;;
25331;SDS011;13284;52.748;13.452;2022-11-15T00:08:30;33.40;;;19.60;;
25331;SDS011;13284;52.748;13.452;2022-11-15T00:10:57;31.70;;;20.23;;
25331;SDS011;13284;52.748;13.452;2022-11-15T00:13:24;38.60;;;19.20;;
25331;SDS011;13284;52.748;13.452;2022-11-15T00:15:50;30.57;;;19.30;;
25331;SDS011;13284;52.748;13.452;2022-11-15T00:18:16;41.30;;;20.70;;
25331;SDS011;13284;52.748;13.452;2022-11-15T00:20:42;40.60;;;22.50;;
25331;SDS011;13284;52.748;13.452;2022-11-15T00:23:08;37.20;;;21.17;;
25331;SDS011;13284;52.748;13.452;2022-11-15T00:25:34;39.17;;;20.97;;
25331;SDS011;13284;52.748;13.452;2022-11-15T00:27:59;39.83;;;21.80;;
25331;SDS011;13284;52.748;13.452;2022-11-15T00:30:26;43.30;;;23.53;;
25331;SDS011;13284;52.748;13.452;2022-11-15T00:32:52;30.93;;;20.33;;
25331;SDS011;13284;52.748;13.452;2022-11-15T00:35:18;38.13;;;21.30;;
25331;SDS011;13284;52.748;13.452;2022-11-15T00:37:44;40.30;;;24.50;;
25331;SDS011;13284;52.748;13.452;2022-11-15T00:40:10;35.30;;;21.93;;
25331;SDS011;13284;52.748;13.452;2022-11-15T00:42:37;38.63;;;22.90;;
25331;SDS011;13284;52.748;13.452;2022-11-15T00:45:03;32.80;;;19.23;;
25331;SDS011;13284;52.748;13.452;2022-11-15T00:47:29;39.93;;;20.67;;
25331;SDS011;13284;52.748;13.452;2022-11-15T00:49:54;37.30;;;21.57;;
25331;SDS011;13284;52.748;13.452;2022-11-15T00:52:20;41.00;;;22.97;;
25331;SDS011;13284;52.748;13.452;2022-11-15T00:54:45;40.03;;;21.40;;
25331;SDS011;13284;52.748;13.452;2022-11-15T00:57:11;41.30;;;20.53;;
25331;SDS011;13284;52.748;13.452;2022-11-15T00:59:36;36.40;;;21.47;;
25331;SDS011;13284;52.748;13.452;2022-11-15T01:02:02;36.63;;;21.70;;
25331;SDS011;13284;52.748;13.452;2022-11-15T01:04:27;39.50;;;21.33;;
25331;SDS011;13284;52.748;13.452;2022-11-15T01:06:53;35.03;;;21.47;;
25331;SDS011;13284;52.748;13.452;2022-11-15T01:09:18;37.80;;;21.20;;
25331;SDS011;13284;52.748;13.452;2022-11-15T01:11:44;37.47;;;21.27;;
25331;SDS011;13284;52.748;13.452;2022-11-15T01:14:09;34.53;;;20.40;;
25331;SDS011;13284;52.748;13.452;2022-11-15T01:16:35;40.50;;;21.00;;
25331;SDS011;13284;52.748;13.452;2022-11-15T01:19:00;36.50;;;20.17;;
25331;SDS011;13284;52.748;13.452;2022-11-15T01:21:26;36.80;;;20.30;;
25331;SDS011;13284;52.748;13.452;2022-11-15T01:23:55;37.07;;;21.30;;
25331;SDS011;13284;52.748;13.452;2022-11-15T01:26:22;38.73;;;20.60;;
25331;SDS011;13284;52.748;13.452;2022-11-15T01:28:48;36.10;;;19.80;;
25331;SDS011;13284;52.748;13.452;2022-11-15T01:31:18;41.33;;;23.37;;
25331;SDS011;13284;52.748;13.452;2022-11-15T01:33:45;41.03;;;22.20;;
25331;SDS011;13284;52.748;13.452;2022-11-15T01:36:12;37.10;;;21.43;;
25331;SDS011;13284;52.748;13.452;2022-11-15T01:38:40;41.03;;;23.07;;
25331;SDS011;13284;52.748;13.452;2022-11-15T01:41:06;40.03;;;19.73;;
25331;SDS011;13284;52.748;13.452;2022-11-15T01:43:32;40.67;;;21.80;;
25331;SDS011;13284;52.748;13.452;2022-11-15T01:46:04;36.77;;;20.10;;
25331;SDS011;13284;52.748;13.452;2022-11-15T01:48:39;35.80;;;21.23;;
25331;SDS011;13284;52.748;13.452;2022-11-15T01:51:07;38.10;;;21.23;;
25331;SDS011;13284;52.748;13.452;2022-11-15T01:53:36;32.73;;;19.93;;
25331;SDS011;13284;52.748;13.452;2022-11-15T01:56:07;34.90;;;19.27;;
25331;SDS011;13284;52.748;13.452;2022-11-15T01:58:36;36.50;;;19.87;;
25331;SDS011;13284;52.748;13.452;2022-11-15T02:01:03;31.70;;;18.20;;
25331;SDS011;13284;52.748;13.452;2022-11-15T02:03:39;35.87;;;21.40;;
25331;SDS011;13284;52.748;13.452;2022-11-15T02:06:11;36.73;;;20.60;;
25331;SDS011;13284;52.748;13.452;2022-11-15T02:08:37;37.90;;;20.13;;
25331;SDS011;13284;52.748;13.452;2022-11-15T02:11:04;30.50;;;18.47;;
25331;SDS011;13284;52.748;13.452;2022-11-15T02:13:32;30.80;;;20.17;;
25331;SDS011;13284;52.748;13.452;2022-11-15T02:16:04;30.57;;;18.20;;
25331;SDS011;13284;52.748;13.452;2022-11-15T02:18:34;35.70;;;21.50;;
25331;SDS011;13284;52.748;13.452;2022-11-15T02:21:06;41.80;;;21.63;;
25331;SDS011;13284;52.748;13.452;2022-11-15T02:24:03;39.43;;;22.23;;
25331;SDS011;13284;52.748;13.452;2022-11-15T02:27:00;36.97;;;19.47;;
25331;SDS011;13284;52.748;13.452;2022-11-15T02:32:11;37.73;;;21.50;;
25331;SDS011;13284;52.748;13.452;2022-11-15T02:34:58;34.87;;;20.00;;
25331;SDS011;13284;52.748;13.452;2022-11-15T02:37:50;39.70;;;20.53;;
25331;SDS011;13284;52.748;13.452;2022-11-15T02:40:35;34.87;;;20.87;;
25331;SDS011;13284;52.748;13.452;2022-11-15T02:43:18;36.67;;;20.67;;
25331;SDS011;13284;52.748;13.452;2022-11-15T02:46:13;38.30;;;21.93;;
25331;SDS011;13284;52.748;13.452;2022-11-15T02:48:43;34.37;;;19.70;;
25331;SDS011;13284;52.748;13.452;2022-11-15T02:51:09;32.40;;;18.90;;
25331;SDS011;13284;52.748;13.452;2022-11-15T02:53:36;33.10;;;19.83;;
25331;SDS011;13284;52.748;13.452;2022-11-15T02:56:01;36.47;;;20.20;;
25331;SDS011;13284;52.748;13.452;2022-11-15T03:04:15;33.97;;;18.83;;
25331;SDS011;13284;52.748;13.452;2022-11-15T03:09:33;36.53;;;22.17;;
25331;SDS011;13284;52.748;13.452;2022-11-15T03:12:23;35.13;;;21.40;;
25331;SDS011;13284;52.748;13.452;2022-11-15T03:15:05;32.23;;;19.60;;
25331;SDS011;13284;52.748;13.452;2022-11-15T03:17:36;30.53;;;18.60;;
25331;SDS011;13284;52.748;13.452;2022-11-15T03:20:06;34.63;;;21.80;;
25331;SDS011;13284;52.748;13.452;2022-11-15T03:22:34;36.33;;;20.63;;
25331;SDS011;13284;52.748;13.452;2022-11-15T03:25:04;31.20;;;19.33;;
25331;SDS011;13284;52.748;13.452;2022-11-15T03:27:34;31.97;;;20.43;;
25331;SDS011;13284;52.748;13.452;2022-11-15T03:30:05;36.33;;;19.80;;
25331;SDS011;13284;52.748;13.452;2022-11-15T03:35:33;32.67;;;19.13;;
25331;SDS011;13284;52.748;13.452;2022-11-15T03:38:06;35.20;;;20.50;;
25331;SDS011;13284;52.748;13.452;2022-11-15T03:40:40;33.80;;;18.53;;
25331;SDS011;13284;52.748;13.452;2022-11-15T03:43:13;29.17;;;18.03;;
25331;SDS011;13284;52.748;13.452;2022-11-15T03:46:00;35.93;;;19.20;;
25331;SDS011;13284;52.748;13.452;2022-11-15T03:48:32;30.77;;;19.60;;
25331;SDS011;13284;52.748;13.452;2022-11-15T03:51:02;33.87;;;18.00;;
25331;SDS011;13284;52.748;13.452;2022-11-15T03:53:29;37.10;;;21.30;;
25331;SDS011;13284;52.748;13.452;2022-11-15T03:55:55;35.77;;;20.10;;
25331;SDS011;13284;52.748;13.452;2022-11-15T03:58:21;32.80;;;19.57;;
25331;SDS011;13284;52.748;13.452;2022-11-15T04:00:46;33.27;;;19.80;;
25331;SDS011;13284;52.748;13.452;2022-11-15T04:03:11;29.93;;;17.87;;
25331;SDS011;13284;52.748;13.452;2022-11-15T04:05:37;34.03;;;18.53;;
25331;SDS011;13284;52.748;13.452;2022-11-15T04:08:03;35.20;;;17.80;;
25331;SDS011;13284;52.748;13.452;2022-11-15T04:10:28;32.57;;;20.50;;
25331;SDS011;13284;52.748;13.452;2022-11-15T04:12:54;32.70;;;19.30;;
25331;SDS011;13284;52.748;13.452;2022-11-15T04:15:21;36.97;;;19.70;;
25331;SDS011;13284;52.748;13.452;2022-11-15T04:17:51;31.10;;;20.23;;
25331;SDS011;13284;52.748;13.452;2022-11-15T04:20:22;33.93;;;19.50;;
25331;SDS011;13284;52.748;13.452;2022-11-15T04:23:15;35.80;;;19.33;;
25331;SDS011;13284;52.748;13.452;2022-11-15T04:26:05;33.00;;;19.70;;
25331;SDS011;13284;52.748;13.452;2022-11-15T04:28:34;32.30;;;19.13;;
25331;SDS011;13284;52.748;13.452;2022-11-15T04:31:20;34.57;;;18.40;;
25331;SDS011;13284;52.748;13.452;2022-11-15T04:33:46;32.00;;;20.87;;
25331;SDS011;13284;52.748;13.452;2022-11-15T04:36:11;37.87;;;21.37;;
25331;SDS011;13284;52.748;13.452;2022-11-15T04:38:55;31.00;;;19.77;;
25331;SDS011;13284;52.748;13.452;2022-11-15T04:41:21;35.57;;;19.33;;
25331;SDS011;13284;52.748;13.452;2022-11-15T04:43:46;30.83;;;17.57;;
25331;SDS011;13284;52.748;13.452;2022-11-15T04:46:12;31.20;;;18.20;;
25331;SDS011;13284;52.748;13.452;2022-11-15T04:48:37;33.77;;;19.00;;
25331;SDS011;13284;52.748;13.452;2022-11-15T04:51:03;33.17;;;19.10;;
25331;SDS011;13284;52.748;13.452;2022-11-15T04:53:28;33.40;;;17.33;;
25331;SDS011;13284;52.748;13.452;2022-11-15T04:55:54;34.87;;;19.67;;
25331;SDS011;13284;52.748;13.452;2022-11-15T04:58:19;33.33;;;19.43;;
25331;SDS011;13284;52.748;13.452;2022-11-15T05:00:45;31.03;;;19.03;;
25331;SDS011;13284;52.748;13.452;2022-11-15T05:03:10;32.70;;;19.23;;
25331;SDS011;13284;52.748;13.452;2022-11-15T05:05:54;29.90;;;17.80;;
25331;SDS011;13284;52.748;13.452;2022-11-15T05:08:20;26.13;;;17.10;;
25331;SDS011;13284;52.748;13.452;2022-11-15T05:10:45;30.20;;;18.47;;
25331;SDS011;13284;52.748;13.452;2022-11-15T05:13:12;32.40;;;19.17;;
25331;SDS011;13284;52.748;13.452;2022-11-15T05:15:38;30.03;;;17.40;;
25331;SDS011;13284;52.748;13.452;2022-11-15T05:18:03;30.60;;;17.60;;
25331;SDS011;13284;52.748;13.452;2022-11-15T05:20:29;27.30;;;17.90;;
25331;SDS011;13284;52.748;13.452;2022-11-15T05:22:54;34.00;;;20.07;;
25331;SDS011;13284;52.748;13.452;2022-11-15T05:25:22;28.27;;;15.60;;
25331;SDS011;13284;52.748;13.452;2022-11-15T05:27:48;30.73;;;18.20;;
25331;SDS011;13284;52.748;13.452;2022-11-15T05:30:14;30.87;;;18.20;;
25331;SDS011;13284;52.748;13.452;2022-11-15T05:32:40;29.57;;;15.97;;
25331;SDS011;13284;52.748;13.452;2022-11-15T05:35:06;30.53;;;18.83;;
25331;SDS011;13284;52.748;13.452;2022-11-15T05:37:36;29.07;;;18.47;;
25331;SDS011;13284;52.748;13.452;2022-11-15T05:40:02;25.10;;;16.37;;
25331;SDS011;13284;52.748;13.452;2022-11-15T05:42:28;32.80;;;18.60;;
25331;SDS011;13284;52.748;13.452;2022-11-15T05:44:55;34.33;;;18.83;;
25331;SDS011;13284;52.748;13.452;2022-11-15T05:47:23;30.73;;;18.80;;
25331;SDS011;13284;52.748;13.452;2022-11-15T05:49:51;34.17;;;19.13;;
25331;SDS011;13284;52.748;13.452;2022-11-15T05:52:20;30.17;;;18.57;;
25331;SDS011;13284;52.748;13.452;2022-11-15T05:54:50;34.43;;;19.93;;
25331;SDS011;13284;52.748;13.452;2022-11-15T05:57:17;32.23;;;18.87;;
25331;SDS011;13284;52.748;13.452;2022-11-15T05:59:43;28.97;;;19.30;;
25331;SDS011;13284;52.748;13.452;2022-11-15T06:02:09;30.03;;;18.20;;
25331;SDS011;13284;52.748;13.452;2022-11-15T06:04:35;30.20;;;19.13;;
25331;SDS011;13284;52.748;13.452;2022-11-15T06:07:00;32.90;;;19.17;;
25331;SDS011;13284;52.748;13.452;2022-11-15T06:09:26;32.27;;;17.87;;
25331;SDS011;13284;52.748;13.452;2022-11-15T06:11:51;29.80;;;16.57;;
25331;SDS011;13284;52.748;13.452;2022-11-15T06:14:17;23.70;;;15.30;;
25331;SDS011;13284;52.748;13.452;2022-11-15T06:16:44;27.53;;;16.80;;
25331;SDS011;13284;52.748;13.452;2022-11-15T06:19:11;26.93;;;16.70;;
25331;SDS011;13284;52.748;13.452;2022-11-15T06:21:37;26.50;;;16.90;;
25331;SDS011;13284;52.748;13.452;2022-11-15T06:24:02;25.40;;;16.43;;
25331;SDS011;13284;52.748;13.452;2022-11-15T06:26:28;28.87;;;17.60;;
25331;SDS011;13284;52.748;13.452;2022-11-15T06:28:53;29.93;;;18.20;;
25331;SDS011;13284;52.748;13.452;2022-11-15T06:31:19;25.20;;;16.57;;
25331;SDS011;13284;52.748;13.452;2022-11-15T06:33:44;30.33;;;17.17;;
25331;SDS011;13284;52.748;13.452;2022-11-15T06:36:11;28.10;;;17.77;;
25331;SDS011;13284;52.748;13.452;2022-11-15T06:38:40;27.23;;;15.47;;
25331;SDS011;13284;52.748;13.452;2022-11-15T06:41:06;27.37;;;16.10;;
25331;SDS011;13284;52.748;13.452;2022-11-15T06:43:33;29.70;;;17.47;;
25331;SDS011;13284;52.748;13.452;2022-11-15T06:46:00;30.83;;;19.77;;
25331;SDS011;13284;52.748;13.452;2022-11-15T06:48:27;30.43;;;19.87;;
25331;SDS011;13284;52.748;13.452;2022-11-15T06:50:53;29.03;;;16.57;;
25331;SDS011;13284;52.748;13.452;2022-11-15T06:53:20;26.73;;;16.67;;
25331;SDS011;13284;52.748;13.452;2022-11-15T06:55:45;33.03;;;17.50;;
25331;SDS011;13284;52.748;13.452;2022-11-15T06:58:11;28.07;;;17.00;;
25331;SDS011;13284;52.748;13.452;2022-11-15T07:00:37;31.67;;;17.60;;
25331;SDS011;13284;52.748;13.452;2022-11-15T07:03:02;27.97;;;16.83;;
25331;SDS011;13284;52.748;13.452;2022-11-15T07:05:28;35.03;;;17.70;;
25331;SDS011;13284;52.748;13.452;2022-11-15T07:07:54;31.97;;;18.13;;
25331;SDS011;13284;52.748;13.452;2022-11-15T07:10:21;29.23;;;17.10;;
25331;SDS011;13284;52.748;13.452;2022-11-15T07:12:49;27.20;;;16.13;;
25331;SDS011;13284;52.748;13.452;2022-11-15T07:15:19;25.50;;;16.23;;
25331;SDS011;13284;52.748;13.452;2022-11-15T07:17:46;31.17;;;18.20;;
25331;SDS011;13284;52.748;13.452;2022-11-15T07:20:13;33.53;;;18.73;;
25331;SDS011;13284;52.748;13.452;2022-11-15T07:22:42;29.30;;;15.97;;
25331;SDS011;13284;52.748;13.452;2022-11-15T07:25:10;32.20;;;17.23;;
25331;SDS011;13284;52.748;13.452;2022-11-15T07:27:35;26.47;;;16.90;;
25331;SDS011;13284;52.748;13.452;2022-11-15T07:30:01;28.70;;;17.07;;
25331;SDS011;13284;52.748;13.452;2022-11-15T07:32:27;28.00;;;17.27;;
25331;SDS011;13284;52.748;13.452;2022-11-15T07:34:52;28.27;;;17.47;;
25331;SDS011;13284;52.748;13.452;2022-11-15T07:37:18;30.63;;;17.77;;
25331;SDS011;13284;52.748;13.452;2022-11-15T07:39:44;26.93;;;18.23;;
25331;SDS011;13284;52.748;13.452;2022-11-15T07:42:09;30.83;;;17.17;;
25331;SDS011;13284;52.748;13.452;2022-11-15T07:44:54;25.80;;;16.57;;
25331;SDS011;13284;52.748;13.452;2022-11-15T07:47:19;28.40;;;15.83;;
25331;SDS011;13284;52.748;13.452;2022-11-15T07:49:45;27.20;;;18.87;;
25331;SDS011;13284;52.748;13.452;2022-11-15T07:52:11;29.27;;;17.10;;
25331;SDS011;13284;52.748;13.452;2022-11-15T07:54:37;31.00;;;17.20;;
25331;SDS011;13284;52.748;13.452;2022-11-15T07:57:03;32.00;;;18.57;;
25331;SDS011;13284;52.748;13.452;2022-11-15T07:59:29;31.17;;;18.90;;
25331;SDS011;13284;52.748;13.452;2022-11-15T08:01:54;28.53;;;16.57;;
25331;SDS011;13284;52.748;13.452;2022-11-15T08:04:20;29.60;;;16.70;;
25331;SDS011;13284;52.748;13.452;2022-11-15T08:06:46;27.23;;;17.10;;
25331;SDS011;13284;52.748;13.452;2022-11-15T08:09:12;26.47;;;16.60;;
25331;SDS011;13284;52.748;13.452;2022-11-15T08:11:37;33.70;;;16.60;;
25331;SDS011;13284;52.748;13.452;2022-11-15T08:14:03;27.37;;;17.73;;
25331;SDS011;13284;52.748;13.452;2022-11-15T08:16:28;29.60;;;17.10;;
25331;SDS011;13284;52.748;13.452;2022-11-15T08:18:54;33.87;;;17.40;;
25331;SDS011;13284;52.748;13.452;2022-11-15T08:21:20;31.10;;;18.63;;
25331;SDS011;13284;52.748;13.452;2022-11-15T08:23:46;26.57;;;16.43;;
25331;SDS011;13284;52.748;13.452;2022-11-15T08:26:12;32.80;;;18.60;;
25331;SDS011;13284;52.748;13.452;2022-11-15T08:28:38;29.83;;;18.90;;
25331;SDS011;13284;52.748;13.452;2022-11-15T08:31:04;34.93;;;20.60;;
25331;SDS011;13284;52.748;13.452;2022-11-15T08:33:30;34.57;;;20.00;;
25331;SDS011;13284;52.748;13.452;2022-11-15T08:35:56;30.50;;;17.50;;
25331;SDS011;13284;52.748;13.452;2022-11-15T08:38:23;29.83;;;17.40;;
25331;SDS011;13284;52.748;13.452;2022-11-15T08:40:50;32.73;;;17.30;;
25331;SDS011;13284;52.748;13.452;2022-11-15T08:43:17;29.57;;;18.00;;
25331;SDS011;13284;52.748;13.452;2022-11-15T08:45:43;32.80;;;18.13;;
25331;SDS011;13284;52.748;13.452;2022-11-15T08:48:09;28.73;;;16.60;;
25331;SDS011;13284;52.748;13.452;2022-11-15T08:50:35;27.93;;;17.70;;
25331;SDS011;13284;52.748;13.452;2022-11-15T08:53:07;26.47;;;17.50;;
25331;SDS011;13284;52.748;13.452;2022-11-15T08:55:35;28.80;;;17.80;;
25331;SDS011;13284;52.748;13.452;2022-11-15T08:58:02;30.10;;;18.60;;
25331;SDS011;13284;52.748;13.452;2022-11-15T09:00:27;28.87;;;17.23;;
25331;SDS011;13284;52.748;13.452;2022-11-15T09:02:53;27.67;;;17.40;;
25331;SDS011;13284;52.748;13.452;2022-11-15T09:05:19;26.27;;;17.30;;
25331;SDS011;13284;52.748;13.452;2022-11-15T09:07:44;27.53;;;17.80;;
25331;SDS011;13284;52.748;13.452;2022-11-15T09:10:10;26.80;;;16.47;;
25331;SDS011;13284;52.748;13.452;2022-11-15T09:12:35;24.07;;;16.00;;
25331;SDS011;13284;52.748;13.452;2022-11-15T09:15:01;26.97;;;17.20;;
25331;SDS011;13284;52.748;13.452;2022-11-15T09:17:27;26.90;;;17.20;;
25331;SDS011;13284;52.748;13.452;2022-11-15T09:19:53;29.70;;;17.93;;
25331;SDS011;13284;52.748;13.452;2022-11-15T09:22:19;28.47;;;16.60;;
25331;SDS011;13284;52.748;13.452;2022-11-15T09:24:44;25.17;;;15.63;;
25331;SDS011;13284;52.748;13.452;2022-11-15T09:27:10;29.20;;;17.10;;
25331;SDS011;13284;52.748;13.452;2022-11-15T09:29:35;23.33;;;16.13;;
25331;SDS011;13284;52.748;13.452;2022-11-15T09:32:01;23.50;;;16.00;;
25331;SDS011;13284;52.748;13.452;2022-11-15T09:34:26;28.10;;;16.90;;
25331;SDS011;13284;52.748;13.452;2022-11-15T09:36:52;24.30;;;16.40;;
25331;SDS011;13284;52.748;13.452;2022-11-15T09:39:18;22.17;;;15.13;;
25331;SDS011;13284;52.748;13.452;2022-11-15T09:44:29;23.30;;;14.90;;
25331;SDS011;13284;52.748;13.452;2022-11-15T09:49:40;22.20;;;14.67;;
25331;SDS011;13284;52.748;13.452;2022-11-15T09:52:06;20.90;;;13.50;;
25331;SDS011;13284;52.748;13.452;2022-11-15T09:54:36;22.30;;;14.47;;
25331;SDS011;13284;52.748;13.452;2022-11-15T09:57:09;21.90;;;13.67;;
25331;SDS011;13284;52.748;13.452;2022-11-15T10:05:29;20.80;;;13.80;;
25331;SDS011;13284;52.748;13.452;2022-11-15T10:12:59;23.83;;;15.00;;
25331;SDS011;13284;52.748;13.452;2022-11-15T10:15:25;19.50;;;13.77;;
25331;SDS011;13284;52.748;13.452;2022-11-15T10:23:20;20.60;;;14.70;;
25331;SDS011;13284;52.748;13.452;2022-11-15T10:25:48;18.70;;;13.80;;
25331;SDS011;13284;52.748;13.452;2022-11-15T10:28:21;18.40;;;13.03;;
25331;SDS011;13284;52.748;13.452;2022-11-15T10:30:52;20.20;;;14.03;;
25331;SDS011;13284;52.748;13.452;2022-11-15T10:36:21;20.50;;;13.80;;
25331;SDS011;13284;52.748;13.452;2022-11-15T10:41:14;24.23;;;13.70;;
25331;SDS011;13284;52.748;13.452;2022-11-15T10:44:01;20.27;;;13.53;;
25331;SDS011;13284;52.748;13.452;2022-11-15T10:46:43;19.50;;;13.43;;
25331;SDS011;13284;52.748;13.452;2022-11-15T10:49:14;19.67;;;12.73;;
25331;SDS011;13284;52.748;13.452;2022-11-15T10:51:41;18.67;;;13.77;;
25331;SDS011;13284;52.748;13.452;2022-11-15T10:54:10;16.20;;;12.17;;
25331;SDS011;13284;52.748;13.452;2022-11-15T10:56:38;21.33;;;15.30;;
25331;SDS011;13284;52.748;13.452;2022-11-15T10:59:07;18.63;;;12.53;;
25331;SDS011;13284;52.748;13.452;2022-11-15T11:01:47;21.10;;;12.60;;
25331;SDS011;13284;52.748;13.452;2022-11-15T11:04:13;19.60;;;13.10;;
25331;SDS011;13284;52.748;13.452;2022-11-15T11:06:49;17.77;;;14.17;;
25331;SDS011;13284;52.748;13.452;2022-11-15T11:09:34;18.07;;;12.87;;
25331;SDS011;13284;52.748;13.452;2022-11-15T11:12:02;19.40;;;11.53;;
25331;SDS011;13284;52.748;13.452;2022-11-15T11:14:30;15.67;;;11.97;;
25331;SDS011;13284;52.748;13.452;2022-11-15T11:17:18;19.20;;;12.27;;
25331;SDS011;13284;52.748;13.452;2022-11-15T11:19:51;16.03;;;12.60;;
25331;SDS011;13284;52.748;13.452;2022-11-15T11:25:28;18.17;;;12.20;;
25331;SDS011;13284;52.748;13.452;2022-11-15T11:28:14;15.73;;;10.87;;
25331;SDS011;13284;52.748;13.452;2022-11-15T11:34:25;16.20;;;10.73;;
25331;SDS011;13284;52.748;13.452;2022-11-15T11:37:03;19.67;;;12.23;;
25331;SDS011;13284;52.748;13.452;2022-11-15T11:42:30;16.87;;;12.13;;
25331;SDS011;13284;52.748;13.452;2022-11-15T11:45:15;14.47;;;11.30;;
25331;SDS011;13284;52.748;13.452;2022-11-15T11:48:12;15.00;;;11.00;;
25331;SDS011;13284;52.748;13.452;2022-11-15T11:51:05;15.50;;;11.90;;
25331;SDS011;13284;52.748;13.452;2022-11-15T11:56:18;16.50;;;11.17;;
25331;SDS011;13284;52.748;13.452;2022-11-15T11:59:00;18.37;;;13.27;;
25331;SDS011;13284;52.748;13.452;2022-11-15T12:01:36;18.30;;;12.10;;
25331;SDS011;13284;52.748;13.452;2022-11-15T12:04:11;13.07;;;10.10;;
25331;SDS011;13284;52.748;13.452;2022-11-15T12:06:46;19.90;;;11.37;;
25331;SDS011;13284;52.748;13.452;2022-11-15T12:15:11;16.50;;;12.00;;
25331;SDS011;13284;52.748;13.452;2022-11-15T12:18:01;16.50;;;11.43;;
25331;SDS011;13284;52.748;13.452;2022-11-15T12:20:37;15.20;;;10.83;;
25331;SDS011;13284;52.748;13.452;2022-11-15T12:23:15;15.20;;;11.57;;
25331;SDS011;13284;52.748;13.452;2022-11-15T12:33:48;14.43;;;11.60;;
25331;SDS011;13284;52.748;13.452;2022-11-15T12:38:50;17.37;;;11.13;;
25331;SDS011;13284;52.748;13.452;2022-11-15T12:41:19;15.20;;;11.23;;
25331;SDS011;13284;52.748;13.452;2022-11-15T12:43:47;14.30;;;10.70;;
25331;SDS011;13284;52.748;13.452;2022-11-15T12:46:21;20.50;;;10.90;;
25331;SDS011;13284;52.748;13.452;2022-11-15T12:48:53;18.57;;;11.57;;
25331;SDS011;13284;52.748;13.452;2022-11-15T12:54:48;15.70;;;11.17;;
25331;SDS011;13284;52.748;13.452;2022-11-15T12:59:49;16.07;;;11.90;;
25331;SDS011;13284;52.748;13.452;2022-11-15T13:04:52;14.63;;;11.23;;
25331;SDS011;13284;52.748;13.452;2022-11-15T13:10:46;17.13;;;11.97;;
25331;SDS011;13284;52.748;13.452;2022-11-15T13:12:49;16.60;;;12.07;;
25331;SDS011;13284;52.748;13.452;2022-11-15T13:18:25;15.80;;;11.90;;
25331;SDS011;13284;52.748;13.452;2022-11-15T13:20:54;16.93;;;11.93;;
25331;SDS011;13284;52.748;13.452;2022-11-15T13:23:20;14.87;;;11.00;;
25331;SDS011;13284;52.748;13.452;2022-11-15T13:25:56;14.97;;;10.60;;
25331;SDS011;13284;52.748;13.452;2022-11-15T13:28:42;14.43;;;12.00;;
25331;SDS011;13284;52.748;13.452;2022-11-15T13:31:24;16.37;;;11.90;;
25331;SDS011;13284;52.748;13.452;2022-11-15T13:33:50;18.50;;;11.30;;
25331;SDS011;13284;52.748;13.452;2022-11-15T13:36:21;17.10;;;13.60;;
25331;SDS011;13284;52.748;13.452;2022-11-15T13:39:35;17.20;;;12.53;;
25331;SDS011;13284;52.748;13.452;2022-11-15T13:41:57;15.17;;;10.80;;
25331;SDS011;13284;52.748;13.452;2022-11-15T13:44:25;16.50;;;10.60;;
25331;SDS011;13284;52.748;13.452;2022-11-15T13:49:40;15.90;;;11.67;;
25331;SDS011;13284;52.748;13.452;2022-11-15T13:52:08;18.97;;;12.60;;
25331;SDS011;13284;52.748;13.452;2022-11-15T13:54:46;13.83;;;11.43;;
25331;SDS011;13284;52.748;13.452;2022-11-15T13:57:18;13.20;;;11.27;;
25331;SDS011;13284;52.748;13.452;2022-11-15T14:00:03;14.70;;;11.37;;
25331;SDS011;13284;52.748;13.452;2022-11-15T14:02:32;15.17;;;10.80;;
25331;SDS011;13284;52.748;13.452;2022-11-15T14:05:02;17.80;;;11.30;;
25331;SDS011;13284;52.748;13.452;2022-11-15T14:07:57;15.90;;;13.13;;
25331;SDS011;13284;52.748;13.452;2022-11-15T14:10:29;14.83;;;10.60;;
25331;SDS011;13284;52.748;13.452;2022-11-15T14:12:57;13.50;;;10.83;;
25331;SDS011;13284;52.748;13.452;2022-11-15T14:15:31;12.20;;;10.97;;
25331;SDS011;13284;52.748;13.452;2022-11-15T14:18:02;12.23;;;10.90;;
25331;SDS011;13284;52.748;13.452;2022-11-15T14:20:30;13.43;;;11.30;;
25331;SDS011;13284;52.748;13.452;2022-11-15T14:23:01;12.33;;;10.93;;
25331;SDS011;13284;52.748;13.452;2022-11-15T14:25:29;13.30;;;10.87;;
25331;SDS011;13284;52.748;13.452;2022-11-15T14:30:44;14.37;;;12.30;;
25331;SDS011;13284;52.748;13.452;2022-11-15T14:35:56;12.30;;;11.00;;
25331;SDS011;13284;52.748;13.452;2022-11-15T14:38:23;14.10;;;11.80;;
25331;SDS011;13284;52.748;13.452;2022-11-15T14:40:49;14.80;;;11.73;;
25331;SDS011;13284;52.748;13.452;2022-11-15T14:43:15;13.90;;;12.07;;
25331;SDS011;13284;52.748;13.452;2022-11-15T14:45:41;12.97;;;10.50;;
25331;SDS011;13284;52.748;13.452;2022-11-15T14:48:07;14.27;;;11.60;;
25331;SDS011;13284;52.748;13.452;2022-11-15T14:50:33;13.33;;;11.10;;
25331;SDS011;13284;52.748;13.452;2022-11-15T14:52:59;14.47;;;12.47;;
25331;SDS011;13284;52.748;13.452;2022-11-15T14:55:26;15.00;;;11.50;;
25331;SDS011;13284;52.748;13.452;2022-11-15T14:57:53;15.10;;;13.13;;
25331;SDS011;13284;52.748;13.452;2022-11-15T15:00:19;15.50;;;12.70;;
25331;SDS011;13284;52.748;13.452;2022-11-15T15:02:47;15.27;;;12.17;;
25331;SDS011;13284;52.748;13.452;2022-11-15T15:05:14;15.80;;;12.37;;
25331;SDS011;13284;52.748;13.452;2022-11-15T15:07:44;15.40;;;12.57;;
25331;SDS011;13284;52.748;13.452;2022-11-15T15:10:11;16.07;;;13.47;;
25331;SDS011;13284;52.748;13.452;2022-11-15T15:12:37;15.47;;;12.37;;
25331;SDS011;13284;52.748;13.452;2022-11-15T15:15:03;19.53;;;14.73;;
25331;SDS011;13284;52.748;13.452;2022-11-15T15:17:29;16.80;;;14.13;;
25331;SDS011;13284;52.748;13.452;2022-11-15T15:19:55;18.27;;;13.10;;
25331;SDS011;13284;52.748;13.452;2022-11-15T15:22:20;20.23;;;13.20;;
25331;SDS011;13284;52.748;13.452;2022-11-15T15:24:50;16.83;;;13.07;;
25331;SDS011;13284;52.748;13.452;2022-11-15T15:27:16;17.07;;;12.87;;
25331;SDS011;13284;52.748;13.452;2022-11-15T15:29:41;17.07;;;13.17;;
25331;SDS011;13284;52.748;13.452;2022-11-15T15:32:07;18.00;;;14.10;;
25331;SDS011;13284;52.748;13.452;2022-11-15T15:34:33;17.60;;;12.70;;
25331;SDS011;13284;52.748;13.452;2022-11-15T15:39:48;21.07;;;13.93;;
25331;SDS011;13284;52.748;13.452;2022-11-15T15:42:14;22.37;;;14.37;;
25331;SDS011;13284;52.748;13.452;2022-11-15T15:44:39;21.27;;;15.33;;
25331;SDS011;13284;52.748;13.452;2022-11-15T15:47:12;20.80;;;14.27;;
25331;SDS011;13284;52.748;13.452;2022-11-15T15:49:39;21.27;;;14.90;;
25331;SDS011;13284;52.748;13.452;2022-11-15T15:52:05;21.90;;;16.27;;
25331;SDS011;13284;52.748;13.452;2022-11-15T15:54:30;19.27;;;14.50;;
25331;SDS011;13284;52.748;13.452;2022-11-15T15:56:56;23.70;;;16.47;;